CA-0061 weather

CLOSED Bristol Field Airport
Argentia, Newfoundland and Labrador, Canada

Public forecast

Using degrees Celsius for public forecast. Weather courtesy of forecast.io.

Closest aviation weather report (METAR) to Bristol Field Airport

Closest report is St. John's International Airport, 53.6 nm (99.2 km) ENE. Retrieved 2020/08/05 18:00 UTC (37 minutes ago):

CYYT 051800Z 16008KT 15SM FEW030 FEW130 20/10 A3013 RMK SC1AC1 SLP207 DENSITY ALT 1000FT

Closest aviation forecast (TAF) to Bristol Field Airport

Closest forecast is St. John's International Airport, 53.6 nm (99.2 km) ENE. Retrieved 2020/08/05 18:42 UTC (0 seconds ago):

TAF CYYT 051740Z 0518/0618 07007KT P6SM SCT150 BECMG 0520/0522 22010KT FM060200 25012KT P6SM SCT008 BKN080 PROB40 0602/0608 BKN008 FM060800 24012G22KT P6SM SCT009 BKN020 BECMG 0610/0612 24015G25KT RMK NXT FCST BY 060000Z